sensor_id;sensor_type;location;lat;lon;timestamp;P1;durP1;ratioP1;P2;durP2;ratioP2
11086;SDS011;5597;47.588;9.642;2023-07-08T00:00:08;6.50;;;5.00;;
11086;SDS011;5597;47.588;9.642;2023-07-08T00:02:42;8.17;;;4.97;;
11086;SDS011;5597;47.588;9.642;2023-07-08T00:05:09;7.10;;;4.77;;
11086;SDS011;5597;47.588;9.642;2023-07-08T00:07:36;5.47;;;4.30;;
11086;SDS011;5597;47.588;9.642;2023-07-08T00:10:09;6.80;;;4.97;;
11086;SDS011;5597;47.588;9.642;2023-07-08T00:12:36;5.83;;;4.30;;
11086;SDS011;5597;47.588;9.642;2023-07-08T00:15:01;6.40;;;4.50;;
11086;SDS011;5597;47.588;9.642;2023-07-08T00:17:27;8.77;;;4.90;;
11086;SDS011;5597;47.588;9.642;2023-07-08T00:19:53;6.10;;;4.53;;
11086;SDS011;5597;47.588;9.642;2023-07-08T00:22:19;6.97;;;4.77;;
11086;SDS011;5597;47.588;9.642;2023-07-08T00:24:45;6.77;;;4.57;;
11086;SDS011;5597;47.588;9.642;2023-07-08T00:27:12;6.00;;;4.60;;
11086;SDS011;5597;47.588;9.642;2023-07-08T00:29:40;8.07;;;5.20;;
11086;SDS011;5597;47.588;9.642;2023-07-08T00:32:10;7.10;;;4.80;;
11086;SDS011;5597;47.588;9.642;2023-07-08T00:34:38;7.53;;;4.97;;
11086;SDS011;5597;47.588;9.642;2023-07-08T00:37:03;8.80;;;4.90;;
11086;SDS011;5597;47.588;9.642;2023-07-08T00:39:30;6.90;;;4.87;;
11086;SDS011;5597;47.588;9.642;2023-07-08T00:42:00;8.27;;;4.90;;
11086;SDS011;5597;47.588;9.642;2023-07-08T00:44:32;5.50;;;4.17;;
11086;SDS011;5597;47.588;9.642;2023-07-08T00:47:02;7.03;;;4.80;;
11086;SDS011;5597;47.588;9.642;2023-07-08T00:54:45;7.03;;;5.07;;
11086;SDS011;5597;47.588;9.642;2023-07-08T00:57:11;8.63;;;5.30;;
11086;SDS011;5597;47.588;9.642;2023-07-08T00:59:48;9.13;;;5.40;;
11086;SDS011;5597;47.588;9.642;2023-07-08T01:02:18;9.00;;;5.10;;
11086;SDS011;5597;47.588;9.642;2023-07-08T01:05:06;7.07;;;4.73;;
11086;SDS011;5597;47.588;9.642;2023-07-08T01:07:35;7.50;;;4.87;;
11086;SDS011;5597;47.588;9.642;2023-07-08T01:10:04;5.70;;;4.57;;
11086;SDS011;5597;47.588;9.642;2023-07-08T01:12:38;7.47;;;5.37;;
11086;SDS011;5597;47.588;9.642;2023-07-08T01:15:11;7.23;;;4.93;;
11086;SDS011;5597;47.588;9.642;2023-07-08T01:17:36;8.43;;;5.33;;
11086;SDS011;5597;47.588;9.642;2023-07-08T01:20:03;6.23;;;4.80;;
11086;SDS011;5597;47.588;9.642;2023-07-08T01:22:37;7.60;;;5.23;;
11086;SDS011;5597;47.588;9.642;2023-07-08T01:25:05;6.07;;;4.77;;
11086;SDS011;5597;47.588;9.642;2023-07-08T01:27:33;6.37;;;4.77;;
11086;SDS011;5597;47.588;9.642;2023-07-08T01:30:02;5.10;;;4.47;;
11086;SDS011;5597;47.588;9.642;2023-07-08T01:32:29;8.67;;;5.00;;
11086;SDS011;5597;47.588;9.642;2023-07-08T01:34:59;7.03;;;4.77;;
11086;SDS011;5597;47.588;9.642;2023-07-08T01:37:39;6.53;;;4.63;;
11086;SDS011;5597;47.588;9.642;2023-07-08T01:40:14;5.63;;;4.50;;
11086;SDS011;5597;47.588;9.642;2023-07-08T01:42:55;8.57;;;5.40;;
11086;SDS011;5597;47.588;9.642;2023-07-08T01:45:22;7.27;;;5.07;;
11086;SDS011;5597;47.588;9.642;2023-07-08T01:47:51;7.50;;;5.40;;
11086;SDS011;5597;47.588;9.642;2023-07-08T01:50:27;8.33;;;5.10;;
11086;SDS011;5597;47.588;9.642;2023-07-08T01:52:53;8.13;;;5.20;;
11086;SDS011;5597;47.588;9.642;2023-07-08T01:55:23;9.13;;;5.30;;
11086;SDS011;5597;47.588;9.642;2023-07-08T01:57:53;6.27;;;4.40;;
11086;SDS011;5597;47.588;9.642;2023-07-08T02:00:20;5.90;;;4.60;;
11086;SDS011;5597;47.588;9.642;2023-07-08T02:02:46;6.23;;;4.97;;
11086;SDS011;5597;47.588;9.642;2023-07-08T02:05:12;6.10;;;4.93;;
11086;SDS011;5597;47.588;9.642;2023-07-08T02:07:41;5.70;;;4.80;;
11086;SDS011;5597;47.588;9.642;2023-07-08T02:10:06;5.70;;;4.47;;
11086;SDS011;5597;47.588;9.642;2023-07-08T02:12:33;7.87;;;4.63;;
11086;SDS011;5597;47.588;9.642;2023-07-08T02:15:01;4.73;;;4.20;;
11086;SDS011;5597;47.588;9.642;2023-07-08T02:17:27;7.00;;;4.70;;
11086;SDS011;5597;47.588;9.642;2023-07-08T02:19:54;7.03;;;5.20;;
11086;SDS011;5597;47.588;9.642;2023-07-08T02:22:20;5.67;;;4.50;;
11086;SDS011;5597;47.588;9.642;2023-07-08T02:24:46;5.00;;;4.10;;
11086;SDS011;5597;47.588;9.642;2023-07-08T02:27:12;4.87;;;4.03;;
11086;SDS011;5597;47.588;9.642;2023-07-08T02:29:39;5.83;;;4.30;;
11086;SDS011;5597;47.588;9.642;2023-07-08T02:32:04;5.67;;;4.30;;
11086;SDS011;5597;47.588;9.642;2023-07-08T02:34:31;6.53;;;4.53;;
11086;SDS011;5597;47.588;9.642;2023-07-08T02:36:56;5.30;;;4.57;;
11086;SDS011;5597;47.588;9.642;2023-07-08T02:39:22;6.93;;;4.20;;
11086;SDS011;5597;47.588;9.642;2023-07-08T02:41:48;5.93;;;4.80;;
11086;SDS011;5597;47.588;9.642;2023-07-08T02:44:14;6.90;;;4.80;;
11086;SDS011;5597;47.588;9.642;2023-07-08T02:46:39;6.73;;;4.43;;
11086;SDS011;5597;47.588;9.642;2023-07-08T02:49:05;5.47;;;4.83;;
11086;SDS011;5597;47.588;9.642;2023-07-08T02:51:32;5.57;;;4.23;;
11086;SDS011;5597;47.588;9.642;2023-07-08T02:53:58;5.90;;;4.70;;
11086;SDS011;5597;47.588;9.642;2023-07-08T02:56:23;6.80;;;4.97;;
11086;SDS011;5597;47.588;9.642;2023-07-08T02:58:51;7.13;;;4.83;;
11086;SDS011;5597;47.588;9.642;2023-07-08T03:01:17;6.70;;;4.77;;
11086;SDS011;5597;47.588;9.642;2023-07-08T03:03:46;4.80;;;4.20;;
11086;SDS011;5597;47.588;9.642;2023-07-08T03:06:12;5.57;;;4.33;;
11086;SDS011;5597;47.588;9.642;2023-07-08T03:08:39;6.67;;;4.60;;
11086;SDS011;5597;47.588;9.642;2023-07-08T03:11:05;5.67;;;4.00;;
11086;SDS011;5597;47.588;9.642;2023-07-08T03:13:32;5.43;;;3.83;;
11086;SDS011;5597;47.588;9.642;2023-07-08T03:15:59;5.53;;;4.27;;
11086;SDS011;5597;47.588;9.642;2023-07-08T03:18:26;5.17;;;4.10;;
11086;SDS011;5597;47.588;9.642;2023-07-08T03:20:53;4.87;;;4.10;;
11086;SDS011;5597;47.588;9.642;2023-07-08T03:23:21;5.50;;;4.53;;
11086;SDS011;5597;47.588;9.642;2023-07-08T03:25:50;8.27;;;5.10;;
11086;SDS011;5597;47.588;9.642;2023-07-08T03:28:16;6.30;;;4.67;;
11086;SDS011;5597;47.588;9.642;2023-07-08T03:30:42;6.97;;;4.90;;
11086;SDS011;5597;47.588;9.642;2023-07-08T03:33:09;6.77;;;4.90;;
11086;SDS011;5597;47.588;9.642;2023-07-08T03:35:35;6.57;;;4.57;;
11086;SDS011;5597;47.588;9.642;2023-07-08T03:38:01;6.77;;;4.60;;
11086;SDS011;5597;47.588;9.642;2023-07-08T03:40:27;6.13;;;4.53;;
11086;SDS011;5597;47.588;9.642;2023-07-08T03:42:53;6.13;;;4.47;;
11086;SDS011;5597;47.588;9.642;2023-07-08T03:45:19;6.63;;;4.57;;
11086;SDS011;5597;47.588;9.642;2023-07-08T03:47:45;6.03;;;4.10;;
11086;SDS011;5597;47.588;9.642;2023-07-08T03:50:18;8.23;;;5.13;;
11086;SDS011;5597;47.588;9.642;2023-07-08T03:52:46;6.73;;;4.93;;
11086;SDS011;5597;47.588;9.642;2023-07-08T03:55:12;6.20;;;4.30;;
11086;SDS011;5597;47.588;9.642;2023-07-08T03:57:39;5.90;;;4.40;;
11086;SDS011;5597;47.588;9.642;2023-07-08T04:00:05;5.07;;;4.30;;
11086;SDS011;5597;47.588;9.642;2023-07-08T04:02:35;4.80;;;3.90;;
11086;SDS011;5597;47.588;9.642;2023-07-08T04:05:01;4.70;;;4.13;;
11086;SDS011;5597;47.588;9.642;2023-07-08T04:07:28;5.00;;;3.97;;
11086;SDS011;5597;47.588;9.642;2023-07-08T04:09:54;5.30;;;4.07;;
11086;SDS011;5597;47.588;9.642;2023-07-08T04:12:20;5.30;;;3.87;;
11086;SDS011;5597;47.588;9.642;2023-07-08T04:14:45;5.50;;;4.07;;
11086;SDS011;5597;47.588;9.642;2023-07-08T04:17:11;7.47;;;4.87;;
11086;SDS011;5597;47.588;9.642;2023-07-08T04:19:37;6.13;;;4.40;;
11086;SDS011;5597;47.588;9.642;2023-07-08T04:22:09;11.63;;;4.73;;
11086;SDS011;5597;47.588;9.642;2023-07-08T04:24:35;8.00;;;4.77;;
11086;SDS011;5597;47.588;9.642;2023-07-08T04:27:01;6.00;;;4.60;;
11086;SDS011;5597;47.588;9.642;2023-07-08T04:29:27;7.67;;;4.77;;
11086;SDS011;5597;47.588;9.642;2023-07-08T04:31:53;5.20;;;4.30;;
11086;SDS011;5597;47.588;9.642;2023-07-08T04:34:19;5.93;;;4.87;;
11086;SDS011;5597;47.588;9.642;2023-07-08T04:36:45;7.23;;;4.83;;
11086;SDS011;5597;47.588;9.642;2023-07-08T04:39:11;6.60;;;4.93;;
11086;SDS011;5597;47.588;9.642;2023-07-08T04:41:38;7.33;;;5.30;;
11086;SDS011;5597;47.588;9.642;2023-07-08T04:44:06;8.20;;;5.07;;
11086;SDS011;5597;47.588;9.642;2023-07-08T04:46:42;6.63;;;4.70;;
11086;SDS011;5597;47.588;9.642;2023-07-08T04:49:16;5.87;;;4.43;;
11086;SDS011;5597;47.588;9.642;2023-07-08T04:51:42;6.63;;;4.83;;
11086;SDS011;5597;47.588;9.642;2023-07-08T04:54:09;7.47;;;4.97;;
11086;SDS011;5597;47.588;9.642;2023-07-08T04:56:36;5.20;;;4.67;;
11086;SDS011;5597;47.588;9.642;2023-07-08T04:59:08;6.13;;;4.20;;
11086;SDS011;5597;47.588;9.642;2023-07-08T05:01:35;7.20;;;5.17;;
11086;SDS011;5597;47.588;9.642;2023-07-08T05:04:01;7.97;;;5.00;;
11086;SDS011;5597;47.588;9.642;2023-07-08T05:06:28;5.33;;;4.80;;
11086;SDS011;5597;47.588;9.642;2023-07-08T05:08:54;6.13;;;4.77;;
11086;SDS011;5597;47.588;9.642;2023-07-08T05:11:20;5.87;;;4.23;;
11086;SDS011;5597;47.588;9.642;2023-07-08T05:13:45;5.03;;;4.20;;
11086;SDS011;5597;47.588;9.642;2023-07-08T05:16:11;5.83;;;4.17;;
11086;SDS011;5597;47.588;9.642;2023-07-08T05:18:37;8.27;;;3.97;;
11086;SDS011;5597;47.588;9.642;2023-07-08T05:21:02;4.33;;;3.67;;
11086;SDS011;5597;47.588;9.642;2023-07-08T05:23:28;5.80;;;4.07;;
11086;SDS011;5597;47.588;9.642;2023-07-08T05:25:54;7.17;;;4.60;;
11086;SDS011;5597;47.588;9.642;2023-07-08T05:28:20;4.03;;;3.63;;
11086;SDS011;5597;47.588;9.642;2023-07-08T05:30:52;5.87;;;4.30;;
11086;SDS011;5597;47.588;9.642;2023-07-08T05:33:19;5.43;;;4.40;;
11086;SDS011;5597;47.588;9.642;2023-07-08T05:35:45;6.60;;;4.17;;
11086;SDS011;5597;47.588;9.642;2023-07-08T05:38:11;5.37;;;4.70;;
11086;SDS011;5597;47.588;9.642;2023-07-08T05:40:39;5.50;;;4.50;;
11086;SDS011;5597;47.588;9.642;2023-07-08T05:43:05;7.93;;;4.70;;
11086;SDS011;5597;47.588;9.642;2023-07-08T05:45:30;6.20;;;4.80;;
11086;SDS011;5597;47.588;9.642;2023-07-08T05:47:56;5.93;;;4.60;;
11086;SDS011;5597;47.588;9.642;2023-07-08T05:50:21;6.53;;;4.83;;
11086;SDS011;5597;47.588;9.642;2023-07-08T05:52:47;7.23;;;4.40;;
11086;SDS011;5597;47.588;9.642;2023-07-08T05:55:13;5.70;;;4.47;;
11086;SDS011;5597;47.588;9.642;2023-07-08T05:57:39;5.10;;;4.13;;
11086;SDS011;5597;47.588;9.642;2023-07-08T06:00:04;5.80;;;4.67;;
11086;SDS011;5597;47.588;9.642;2023-07-08T06:02:31;7.77;;;5.30;;
11086;SDS011;5597;47.588;9.642;2023-07-08T06:04:56;7.83;;;4.97;;
11086;SDS011;5597;47.588;9.642;2023-07-08T06:07:22;5.40;;;4.60;;
11086;SDS011;5597;47.588;9.642;2023-07-08T06:09:48;6.20;;;4.93;;
11086;SDS011;5597;47.588;9.642;2023-07-08T06:12:14;6.13;;;4.63;;
11086;SDS011;5597;47.588;9.642;2023-07-08T06:14:39;5.40;;;4.40;;
11086;SDS011;5597;47.588;9.642;2023-07-08T06:17:05;5.57;;;4.67;;
11086;SDS011;5597;47.588;9.642;2023-07-08T06:19:32;5.53;;;4.63;;
11086;SDS011;5597;47.588;9.642;2023-07-08T06:21:58;5.70;;;4.27;;
11086;SDS011;5597;47.588;9.642;2023-07-08T06:24:24;7.73;;;4.73;;
11086;SDS011;5597;47.588;9.642;2023-07-08T06:26:49;5.23;;;4.30;;
11086;SDS011;5597;47.588;9.642;2023-07-08T06:29:15;7.57;;;4.30;;
11086;SDS011;5597;47.588;9.642;2023-07-08T06:31:41;6.57;;;3.73;;
11086;SDS011;5597;47.588;9.642;2023-07-08T06:34:07;4.40;;;3.43;;
11086;SDS011;5597;47.588;9.642;2023-07-08T06:36:33;5.67;;;3.50;;
11086;SDS011;5597;47.588;9.642;2023-07-08T06:38:58;4.00;;;3.30;;
11086;SDS011;5597;47.588;9.642;2023-07-08T06:41:24;5.00;;;3.53;;
11086;SDS011;5597;47.588;9.642;2023-07-08T06:43:50;4.27;;;3.60;;
11086;SDS011;5597;47.588;9.642;2023-07-08T06:46:16;5.40;;;3.80;;
11086;SDS011;5597;47.588;9.642;2023-07-08T06:48:43;6.10;;;3.23;;
11086;SDS011;5597;47.588;9.642;2023-07-08T06:51:09;5.10;;;3.30;;
11086;SDS011;5597;47.588;9.642;2023-07-08T06:53:35;4.70;;;3.40;;
11086;SDS011;5597;47.588;9.642;2023-07-08T06:56:00;4.27;;;2.93;;
11086;SDS011;5597;47.588;9.642;2023-07-08T06:58:27;4.20;;;2.83;;
11086;SDS011;5597;47.588;9.642;2023-07-08T07:00:53;4.43;;;2.50;;
11086;SDS011;5597;47.588;9.642;2023-07-08T07:03:19;3.47;;;2.50;;
11086;SDS011;5597;47.588;9.642;2023-07-08T07:05:45;3.93;;;2.60;;
11086;SDS011;5597;47.588;9.642;2023-07-08T07:08:10;3.40;;;2.50;;
11086;SDS011;5597;47.588;9.642;2023-07-08T07:10:39;4.17;;;2.57;;
11086;SDS011;5597;47.588;9.642;2023-07-08T07:13:04;2.80;;;2.03;;
11086;SDS011;5597;47.588;9.642;2023-07-08T07:15:30;3.20;;;2.33;;
11086;SDS011;5597;47.588;9.642;2023-07-08T07:17:57;3.90;;;2.30;;
11086;SDS011;5597;47.588;9.642;2023-07-08T07:20:23;2.77;;;2.10;;
11086;SDS011;5597;47.588;9.642;2023-07-08T07:22:51;4.47;;;2.33;;
11086;SDS011;5597;47.588;9.642;2023-07-08T07:25:17;2.10;;;1.80;;
11086;SDS011;5597;47.588;9.642;2023-07-08T07:27:43;2.90;;;2.10;;
11086;SDS011;5597;47.588;9.642;2023-07-08T07:30:08;3.67;;;1.80;;
11086;SDS011;5597;47.588;9.642;2023-07-08T07:32:37;3.03;;;1.97;;
11086;SDS011;5597;47.588;9.642;2023-07-08T07:35:06;3.30;;;1.70;;
11086;SDS011;5597;47.588;9.642;2023-07-08T07:37:33;3.17;;;1.70;;
11086;SDS011;5597;47.588;9.642;2023-07-08T07:39:58;2.27;;;1.70;;
11086;SDS011;5597;47.588;9.642;2023-07-08T07:42:26;2.33;;;1.70;;
11086;SDS011;5597;47.588;9.642;2023-07-08T07:44:52;2.07;;;1.60;;
11086;SDS011;5597;47.588;9.642;2023-07-08T07:47:18;1.80;;;1.50;;
11086;SDS011;5597;47.588;9.642;2023-07-08T07:49:44;3.33;;;1.70;;
11086;SDS011;5597;47.588;9.642;2023-07-08T07:52:09;2.00;;;1.70;;
11086;SDS011;5597;47.588;9.642;2023-07-08T07:54:38;2.67;;;1.60;;
11086;SDS011;5597;47.588;9.642;2023-07-08T07:57:04;2.90;;;1.77;;
11086;SDS011;5597;47.588;9.642;2023-07-08T07:59:30;2.00;;;1.30;;
11086;SDS011;5597;47.588;9.642;2023-07-08T08:01:56;2.17;;;1.30;;
11086;SDS011;5597;47.588;9.642;2023-07-08T08:04:21;1.80;;;1.40;;
11086;SDS011;5597;47.588;9.642;2023-07-08T08:06:47;2.30;;;1.73;;
11086;SDS011;5597;47.588;9.642;2023-07-08T08:09:13;2.00;;;1.33;;
11086;SDS011;5597;47.588;9.642;2023-07-08T08:11:38;1.50;;;1.30;;
11086;SDS011;5597;47.588;9.642;2023-07-08T08:14:04;1.70;;;1.20;;
11086;SDS011;5597;47.588;9.642;2023-07-08T08:16:30;2.03;;;1.43;;
11086;SDS011;5597;47.588;9.642;2023-07-08T08:18:55;3.37;;;1.37;;
11086;SDS011;5597;47.588;9.642;2023-07-08T08:21:21;1.80;;;1.40;;
11086;SDS011;5597;47.588;9.642;2023-07-08T08:23:47;3.87;;;1.47;;
11086;SDS011;5597;47.588;9.642;2023-07-08T08:26:13;1.70;;;1.40;;
11086;SDS011;5597;47.588;9.642;2023-07-08T08:28:39;1.73;;;1.40;;
11086;SDS011;5597;47.588;9.642;2023-07-08T08:31:05;2.33;;;1.60;;
11086;SDS011;5597;47.588;9.642;2023-07-08T08:33:30;2.23;;;1.57;;
11086;SDS011;5597;47.588;9.642;2023-07-08T08:35:56;2.03;;;1.53;;
11086;SDS011;5597;47.588;9.642;2023-07-08T08:38:22;2.40;;;1.50;;
11086;SDS011;5597;47.588;9.642;2023-07-08T08:40:47;3.07;;;1.43;;
11086;SDS011;5597;47.588;9.642;2023-07-08T08:43:14;4.33;;;1.43;;
11086;SDS011;5597;47.588;9.642;2023-07-08T08:48:29;7.53;;;1.80;;
11086;SDS011;5597;47.588;9.642;2023-07-08T08:51:05;5.07;;;1.90;;
11086;SDS011;5597;47.588;9.642;2023-07-08T08:53:37;2.30;;;1.40;;
11086;SDS011;5597;47.588;9.642;2023-07-08T08:56:05;3.30;;;1.87;;
11086;SDS011;5597;47.588;9.642;2023-07-08T08:59:23;2.30;;;1.60;;
11086;SDS011;5597;47.588;9.642;2023-07-08T09:01:35;2.77;;;1.67;;
11086;SDS011;5597;47.588;9.642;2023-07-08T09:06:32;3.90;;;1.53;;
11086;SDS011;5597;47.588;9.642;2023-07-08T09:09:03;4.03;;;1.40;;
11086;SDS011;5597;47.588;9.642;2023-07-08T09:14:26;2.90;;;1.70;;
11086;SDS011;5597;47.588;9.642;2023-07-08T09:19:50;1.60;;;1.30;;
11086;SDS011;5597;47.588;9.642;2023-07-08T09:22:38;2.63;;;1.63;;
11086;SDS011;5597;47.588;9.642;2023-07-08T09:25:22;1.90;;;1.57;;
11086;SDS011;5597;47.588;9.642;2023-07-08T09:27:52;2.63;;;1.33;;
11086;SDS011;5597;47.588;9.642;2023-07-08T09:30:19;2.40;;;1.67;;
11086;SDS011;5597;47.588;9.642;2023-07-08T09:32:47;2.40;;;1.63;;
11086;SDS011;5597;47.588;9.642;2023-07-08T09:35:17;2.17;;;1.50;;
11086;SDS011;5597;47.588;9.642;2023-07-08T09:37:48;1.47;;;1.30;;
11086;SDS011;5597;47.588;9.642;2023-07-08T09:40:28;1.97;;;1.50;;
11086;SDS011;5597;47.588;9.642;2023-07-08T09:43:20;1.70;;;1.40;;
11086;SDS011;5597;47.588;9.642;2023-07-08T09:45:49;2.33;;;1.30;;
11086;SDS011;5597;47.588;9.642;2023-07-08T09:48:26;2.30;;;1.57;;
11086;SDS011;5597;47.588;9.642;2023-07-08T09:50:53;2.20;;;1.53;;
11086;SDS011;5597;47.588;9.642;2023-07-08T09:53:21;1.90;;;1.47;;
11086;SDS011;5597;47.588;9.642;2023-07-08T09:55:47;2.97;;;1.67;;
11086;SDS011;5597;47.588;9.642;2023-07-08T09:58:25;1.67;;;1.50;;
11086;SDS011;5597;47.588;9.642;2023-07-08T10:00:54;2.30;;;1.50;;
11086;SDS011;5597;47.588;9.642;2023-07-08T10:03:22;2.43;;;1.57;;
11086;SDS011;5597;47.588;9.642;2023-07-08T10:05:52;2.07;;;1.47;;
11086;SDS011;5597;47.588;9.642;2023-07-08T10:08:22;2.57;;;1.60;;
11086;SDS011;5597;47.588;9.642;2023-07-08T10:10:52;1.70;;;1.50;;
11086;SDS011;5597;47.588;9.642;2023-07-08T10:13:26;3.30;;;1.60;;
11086;SDS011;5597;47.588;9.642;2023-07-08T10:18:51;1.70;;;1.40;;
11086;SDS011;5597;47.588;9.642;2023-07-08T10:26:50;2.90;;;1.80;;
11086;SDS011;5597;47.588;9.642;2023-07-08T10:29:55;3.03;;;1.67;;
11086;SDS011;5597;47.588;9.642;2023-07-08T10:32:36;2.27;;;1.70;;
11086;SDS011;5597;47.588;9.642;2023-07-08T10:35:21;2.40;;;1.50;;
11086;SDS011;5597;47.588;9.642;2023-07-08T10:40:47;2.30;;;1.50;;
11086;SDS011;5597;47.588;9.642;2023-07-08T10:45:52;1.73;;;1.57;;
11086;SDS011;5597;47.588;9.642;2023-07-08T10:54:07;2.67;;;1.70;;
11086;SDS011;5597;47.588;9.642;2023-07-08T11:02:02;1.90;;;1.57;;
11086;SDS011;5597;47.588;9.642;2023-07-08T11:10:20;3.80;;;1.90;;
11086;SDS011;5597;47.588;9.642;2023-07-08T11:12:51;2.63;;;1.90;;
11086;SDS011;5597;47.588;9.642;2023-07-08T11:15:34;2.27;;;1.70;;
11086;SDS011;5597;47.588;9.642;2023-07-08T11:21:14;2.33;;;1.70;;
11086;SDS011;5597;47.588;9.642;2023-07-08T11:23:45;2.83;;;1.60;;
11086;SDS011;5597;47.588;9.642;2023-07-08T11:26:38;2.70;;;1.53;;
11086;SDS011;5597;47.588;9.642;2023-07-08T11:29:15;3.27;;;1.80;;
11086;SDS011;5597;47.588;9.642;2023-07-08T11:31:49;2.30;;;2.10;;
11086;SDS011;5597;47.588;9.642;2023-07-08T11:34:17;2.40;;;1.90;;
11086;SDS011;5597;47.588;9.642;2023-07-08T11:36:44;2.00;;;1.70;;
11086;SDS011;5597;47.588;9.642;2023-07-08T11:44:57;2.77;;;2.03;;
11086;SDS011;5597;47.588;9.642;2023-07-08T11:49:57;2.20;;;1.83;;
11086;SDS011;5597;47.588;9.642;2023-07-08T11:52:22;2.07;;;1.60;;
11086;SDS011;5597;47.588;9.642;2023-07-08T11:54:54;3.07;;;2.10;;
11086;SDS011;5597;47.588;9.642;2023-07-08T11:57:27;2.40;;;2.20;;
11086;SDS011;5597;47.588;9.642;2023-07-08T12:00:10;4.40;;;2.50;;
11086;SDS011;5597;47.588;9.642;2023-07-08T12:02:48;2.17;;;1.77;;
11086;SDS011;5597;47.588;9.642;2023-07-08T12:05:15;3.10;;;2.10;;
11086;SDS011;5597;47.588;9.642;2023-07-08T12:10:16;2.90;;;1.73;;
11086;SDS011;5597;47.588;9.642;2023-07-08T12:12:47;3.27;;;1.90;;
11086;SDS011;5597;47.588;9.642;2023-07-08T12:17:56;2.33;;;1.73;;
11086;SDS011;5597;47.588;9.642;2023-07-08T12:20:34;4.13;;;2.10;;
11086;SDS011;5597;47.588;9.642;2023-07-08T12:23:01;2.50;;;2.20;;
11086;SDS011;5597;47.588;9.642;2023-07-08T12:25:37;2.47;;;2.10;;
11086;SDS011;5597;47.588;9.642;2023-07-08T12:28:02;2.67;;;2.10;;
11086;SDS011;5597;47.588;9.642;2023-07-08T12:30:29;3.77;;;2.13;;
11086;SDS011;5597;47.588;9.642;2023-07-08T12:32:57;3.53;;;2.10;;
11086;SDS011;5597;47.588;9.642;2023-07-08T12:35:28;4.00;;;1.90;;
11086;SDS011;5597;47.588;9.642;2023-07-08T12:37:57;2.20;;;1.93;;
11086;SDS011;5597;47.588;9.642;2023-07-08T12:40:26;2.93;;;2.00;;
11086;SDS011;5597;47.588;9.642;2023-07-08T12:42:54;2.67;;;1.90;;
11086;SDS011;5597;47.588;9.642;2023-07-08T12:45:22;2.40;;;1.97;;
11086;SDS011;5597;47.588;9.642;2023-07-08T12:47:48;4.33;;;2.23;;
11086;SDS011;5597;47.588;9.642;2023-07-08T12:50:15;4.67;;;2.30;;
11086;SDS011;5597;47.588;9.642;2023-07-08T12:52:42;2.50;;;2.30;;
11086;SDS011;5597;47.588;9.642;2023-07-08T12:55:10;2.40;;;2.03;;
11086;SDS011;5597;47.588;9.642;2023-07-08T12:57:37;2.37;;;2.10;;
11086;SDS011;5597;47.588;9.642;2023-07-08T13:00:05;2.30;;;1.70;;
11086;SDS011;5597;47.588;9.642;2023-07-08T13:02:57;3.57;;;2.47;;
11086;SDS011;5597;47.588;9.642;2023-07-08T13:05:28;2.87;;;2.07;;
11086;SDS011;5597;47.588;9.642;2023-07-08T13:07:54;3.67;;;2.40;;
11086;SDS011;5597;47.588;9.642;2023-07-08T13:10:23;2.93;;;2.10;;
11086;SDS011;5597;47.588;9.642;2023-07-08T13:13:00;3.07;;;2.03;;
11086;SDS011;5597;47.588;9.642;2023-07-08T13:15:30;4.73;;;2.23;;
11086;SDS011;5597;47.588;9.642;2023-07-08T13:17:59;2.97;;;2.20;;
11086;SDS011;5597;47.588;9.642;2023-07-08T13:20:26;3.03;;;2.20;;
11086;SDS011;5597;47.588;9.642;2023-07-08T13:22:54;2.67;;;2.13;;
11086;SDS011;5597;47.588;9.642;2023-07-08T13:25:25;2.53;;;2.10;;
11086;SDS011;5597;47.588;9.642;2023-07-08T13:27:57;2.63;;;2.10;;
11086;SDS011;5597;47.588;9.642;2023-07-08T13:30:24;3.00;;;2.20;;
11086;SDS011;5597;47.588;9.642;2023-07-08T13:32:52;2.47;;;2.27;;
11086;SDS011;5597;47.588;9.642;2023-07-08T13:35:22;4.33;;;2.50;;
11086;SDS011;5597;47.588;9.642;2023-07-08T13:37:49;2.87;;;2.50;;
11086;SDS011;5597;47.588;9.642;2023-07-08T13:40:15;3.70;;;2.20;;
11086;SDS011;5597;47.588;9.642;2023-07-08T13:42:51;4.77;;;2.33;;
11086;SDS011;5597;47.588;9.642;2023-07-08T13:45:21;3.13;;;2.30;;
11086;SDS011;5597;47.588;9.642;2023-07-08T13:50:43;2.33;;;1.97;;
11086;SDS011;5597;47.588;9.642;2023-07-08T13:53:18;2.73;;;2.10;;
11086;SDS011;5597;47.588;9.642;2023-07-08T13:55:47;4.13;;;2.30;;
11086;SDS011;5597;47.588;9.642;2023-07-08T13:58:16;2.47;;;1.90;;
11086;SDS011;5597;47.588;9.642;2023-07-08T14:00:43;4.73;;;2.20;;
11086;SDS011;5597;47.588;9.642;2023-07-08T14:03:11;2.50;;;2.07;;
11086;SDS011;5597;47.588;9.642;2023-07-08T14:05:41;2.27;;;2.07;;
11086;SDS011;5597;47.588;9.642;2023-07-08T14:08:12;2.78;;;2.15;;
11086;SDS011;5597;47.588;9.642;2023-07-08T14:10:39;2.97;;;2.20;;
11086;SDS011;5597;47.588;9.642;2023-07-08T14:13:05;3.22;;;2.10;;
11086;SDS011;5597;47.588;9.642;2023-07-08T14:15:31;3.88;;;2.33;;
11086;SDS011;5597;47.588;9.642;2023-07-08T14:17:57;2.30;;;2.10;;
11086;SDS011;5597;47.588;9.642;2023-07-08T14:20:26;2.47;;;2.10;;
11086;SDS011;5597;47.588;9.642;2023-07-08T14:22:54;3.78;;;2.42;;
11086;SDS011;5597;47.588;9.642;2023-07-08T14:25:20;3.03;;;2.08;;
11086;SDS011;5597;47.588;9.642;2023-07-08T14:27:48;2.47;;;2.17;;
11086;SDS011;5597;47.588;9.642;2023-07-08T14:30:18;3.50;;;2.10;;
11086;SDS011;5597;47.588;9.642;2023-07-08T14:32:44;3.88;;;2.65;;
11086;SDS011;5597;47.588;9.642;2023-07-08T14:37:49;2.90;;;2.28;;
11086;SDS011;5597;47.588;9.642;2023-07-08T14:40:25;2.42;;;2.03;;
11086;SDS011;5597;47.588;9.642;2023-07-08T14:43:01;3.33;;;2.38;;
11086;SDS011;5597;47.588;9.642;2023-07-08T14:45:48;2.50;;;2.22;;
11086;SDS011;5597;47.588;9.642;2023-07-08T14:48:15;2.40;;;1.95;;
11086;SDS011;5597;47.588;9.642;2023-07-08T14:50:41;2.53;;;2.13;;
11086;SDS011;5597;47.588;9.642;2023-07-08T14:53:07;3.67;;;2.05;;
11086;SDS011;5597;47.588;9.642;2023-07-08T14:55:36;2.47;;;2.00;;
11086;SDS011;5597;47.588;9.642;2023-07-08T14:58:02;2.45;;;2.10;;
11086;SDS011;5597;47.588;9.642;2023-07-08T15:00:29;2.33;;;2.03;;
11086;SDS011;5597;47.588;9.642;2023-07-08T15:02:55;3.35;;;2.17;;
11086;SDS011;5597;47.588;9.642;2023-07-08T15:05:23;3.00;;;2.20;;
11086;SDS011;5597;47.588;9.642;2023-07-08T15:07:51;3.17;;;2.08;;
11086;SDS011;5597;47.588;9.642;2023-07-08T15:10:19;3.65;;;2.25;;
11086;SDS011;5597;47.588;9.642;2023-07-08T15:12:46;2.95;;;1.90;;
11086;SDS011;5597;47.588;9.642;2023-07-08T15:15:17;3.53;;;2.05;;
11086;SDS011;5597;47.588;9.642;2023-07-08T15:17:49;2.95;;;1.90;;
11086;SDS011;5597;47.588;9.642;2023-07-08T15:20:16;3.63;;;2.03;;
11086;SDS011;5597;47.588;9.642;2023-07-08T15:22:42;2.58;;;2.10;;
11086;SDS011;5597;47.588;9.642;2023-07-08T15:25:09;3.65;;;2.10;;
11086;SDS011;5597;47.588;9.642;2023-07-08T15:27:36;3.50;;;2.13;;
11086;SDS011;5597;47.588;9.642;2023-07-08T15:30:02;2.85;;;2.15;;
11086;SDS011;5597;47.588;9.642;2023-07-08T15:32:29;2.10;;;1.85;;
11086;SDS011;5597;47.588;9.642;2023-07-08T15:34:54;2.95;;;2.10;;
11086;SDS011;5597;47.588;9.642;2023-07-08T15:37:20;3.63;;;2.28;;
11086;SDS011;5597;47.588;9.642;2023-07-08T15:39:46;2.47;;;1.80;;
11086;SDS011;5597;47.588;9.642;2023-07-08T15:42:11;3.42;;;2.10;;
11086;SDS011;5597;47.588;9.642;2023-07-08T15:44:38;2.40;;;2.00;;
11086;SDS011;5597;47.588;9.642;2023-07-08T15:47:04;2.80;;;1.95;;
11086;SDS011;5597;47.588;9.642;2023-07-08T15:49:31;2.90;;;2.40;;
11086;SDS011;5597;47.588;9.642;2023-07-08T15:51:58;2.83;;;2.10;;
11086;SDS011;5597;47.588;9.642;2023-07-08T15:54:24;4.43;;;2.38;;
11086;SDS011;5597;47.588;9.642;2023-07-08T15:56:51;2.22;;;2.03;;
11086;SDS011;5597;47.588;9.642;2023-07-08T15:59:27;2.90;;;1.98;;
11086;SDS011;5597;47.588;9.642;2023-07-08T16:01:54;2.67;;;2.38;;
11086;SDS011;5597;47.588;9.642;2023-07-08T16:04:23;2.58;;;2.05;;
11086;SDS011;5597;47.588;9.642;2023-07-08T16:06:59;2.90;;;2.17;;
11086;SDS011;5597;47.588;9.642;2023-07-08T16:09:24;2.63;;;2.40;;
11086;SDS011;5597;47.588;9.642;2023-07-08T16:11:50;3.47;;;2.30;;
11086;SDS011;5597;47.588;9.642;2023-07-08T16:14:16;2.72;;;2.30;;
11086;SDS011;5597;47.588;9.642;2023-07-08T16:16:43;4.40;;;2.53;;